sensor_id;sensor_type;location;lat;lon;timestamp;temperature;humidity
30694;DHT22;17446;48.022;-1.740;2023-11-22T00:01:49;12.20;99.90
30694;DHT22;17446;48.022;-1.740;2023-11-22T00:04:15;12.20;99.90
30694;DHT22;17446;48.022;-1.740;2023-11-22T00:06:41;12.20;99.90
30694;DHT22;17446;48.022;-1.740;2023-11-22T00:09:06;12.30;99.90
30694;DHT22;17446;48.022;-1.740;2023-11-22T00:11:32;12.30;99.90
30694;DHT22;17446;48.022;-1.740;2023-11-22T00:13:58;12.30;99.90
30694;DHT22;17446;48.022;-1.740;2023-11-22T00:16:23;12.30;99.90
30694;DHT22;17446;48.022;-1.740;2023-11-22T00:18:49;12.30;99.90
30694;DHT22;17446;48.022;-1.740;2023-11-22T00:21:15;12.30;99.90
30694;DHT22;17446;48.022;-1.740;2023-11-22T00:23:40;12.40;99.90
30694;DHT22;17446;48.022;-1.740;2023-11-22T00:26:06;12.40;99.90
30694;DHT22;17446;48.022;-1.740;2023-11-22T00:28:32;12.40;99.90
30694;DHT22;17446;48.022;-1.740;2023-11-22T00:30:57;12.40;99.90
30694;DHT22;17446;48.022;-1.740;2023-11-22T00:33:23;12.40;99.90
30694;DHT22;17446;48.022;-1.740;2023-11-22T00:35:49;12.50;99.90
30694;DHT22;17446;48.022;-1.740;2023-11-22T00:38:15;12.50;99.90
30694;DHT22;17446;48.022;-1.740;2023-11-22T00:40:42;12.40;99.90
30694;DHT22;17446;48.022;-1.740;2023-11-22T00:43:07;12.50;99.90
30694;DHT22;17446;48.022;-1.740;2023-11-22T00:45:33;12.50;99.90
30694;DHT22;17446;48.022;-1.740;2023-11-22T00:48:00;12.50;99.90
30694;DHT22;17446;48.022;-1.740;2023-11-22T00:50:26;12.50;99.90
30694;DHT22;17446;48.022;-1.740;2023-11-22T00:52:51;12.50;99.90
30694;DHT22;17446;48.022;-1.740;2023-11-22T00:55:17;12.50;99.90
30694;DHT22;17446;48.022;-1.740;2023-11-22T00:57:43;12.50;99.90
30694;DHT22;17446;48.022;-1.740;2023-11-22T01:00:09;12.50;99.90
30694;DHT22;17446;48.022;-1.740;2023-11-22T01:02:36;12.40;99.90
30694;DHT22;17446;48.022;-1.740;2023-11-22T01:05:08;12.40;99.90
30694;DHT22;17446;48.022;-1.740;2023-11-22T01:07:37;12.40;99.90
30694;DHT22;17446;48.022;-1.740;2023-11-22T01:10:03;12.40;99.90
30694;DHT22;17446;48.022;-1.740;2023-11-22T01:12:31;12.40;99.90
30694;DHT22;17446;48.022;-1.740;2023-11-22T01:14:56;12.40;99.90
30694;DHT22;17446;48.022;-1.740;2023-11-22T01:17:22;12.40;99.90
30694;DHT22;17446;48.022;-1.740;2023-11-22T01:19:49;12.40;99.90
30694;DHT22;17446;48.022;-1.740;2023-11-22T01:22:16;12.40;99.90
30694;DHT22;17446;48.022;-1.740;2023-11-22T01:24:42;12.40;99.90
30694;DHT22;17446;48.022;-1.740;2023-11-22T01:27:08;12.40;99.90
30694;DHT22;17446;48.022;-1.740;2023-11-22T01:29:34;12.40;99.90
30694;DHT22;17446;48.022;-1.740;2023-11-22T01:32:00;12.40;99.90
30694;DHT22;17446;48.022;-1.740;2023-11-22T01:34:26;12.40;99.90
30694;DHT22;17446;48.022;-1.740;2023-11-22T01:36:52;12.30;99.90
30694;DHT22;17446;48.022;-1.740;2023-11-22T01:39:17;12.30;99.90
30694;DHT22;17446;48.022;-1.740;2023-11-22T01:41:46;12.30;99.90
30694;DHT22;17446;48.022;-1.740;2023-11-22T01:44:15;12.30;99.90
30694;DHT22;17446;48.022;-1.740;2023-11-22T01:46:42;12.30;99.90
30694;DHT22;17446;48.022;-1.740;2023-11-22T01:49:09;12.30;99.90
30694;DHT22;17446;48.022;-1.740;2023-11-22T01:51:35;12.30;99.90
30694;DHT22;17446;48.022;-1.740;2023-11-22T01:54:01;12.20;99.90
30694;DHT22;17446;48.022;-1.740;2023-11-22T01:56:27;12.30;99.90
30694;DHT22;17446;48.022;-1.740;2023-11-22T01:58:55;12.20;99.90
30694;DHT22;17446;48.022;-1.740;2023-11-22T02:01:22;12.20;99.90
30694;DHT22;17446;48.022;-1.740;2023-11-22T02:03:48;12.20;99.90
30694;DHT22;17446;48.022;-1.740;2023-11-22T02:06:15;12.20;99.90
30694;DHT22;17446;48.022;-1.740;2023-11-22T02:08:44;12.20;99.90
30694;DHT22;17446;48.022;-1.740;2023-11-22T02:11:10;12.20;99.90
30694;DHT22;17446;48.022;-1.740;2023-11-22T02:13:35;12.20;99.90
30694;DHT22;17446;48.022;-1.740;2023-11-22T02:16:02;12.20;99.90
30694;DHT22;17446;48.022;-1.740;2023-11-22T02:18:28;12.20;99.90
30694;DHT22;17446;48.022;-1.740;2023-11-22T02:20:55;12.20;99.90
30694;DHT22;17446;48.022;-1.740;2023-11-22T02:23:21;12.20;99.90
30694;DHT22;17446;48.022;-1.740;2023-11-22T02:25:47;12.20;99.90
30694;DHT22;17446;48.022;-1.740;2023-11-22T02:28:13;12.20;99.90
30694;DHT22;17446;48.022;-1.740;2023-11-22T02:30:39;12.20;99.90
30694;DHT22;17446;48.022;-1.740;2023-11-22T02:33:05;12.20;99.90
30694;DHT22;17446;48.022;-1.740;2023-11-22T02:35:31;12.20;99.90
30694;DHT22;17446;48.022;-1.740;2023-11-22T02:37:57;12.20;99.90
30694;DHT22;17446;48.022;-1.740;2023-11-22T02:40:23;12.10;99.90
30694;DHT22;17446;48.022;-1.740;2023-11-22T02:42:51;12.20;99.90
30694;DHT22;17446;48.022;-1.740;2023-11-22T02:45:18;12.20;99.90
30694;DHT22;17446;48.022;-1.740;2023-11-22T02:47:44;12.30;99.90
30694;DHT22;17446;48.022;-1.740;2023-11-22T02:50:12;12.30;99.90
30694;DHT22;17446;48.022;-1.740;2023-11-22T02:52:37;12.30;99.90
30694;DHT22;17446;48.022;-1.740;2023-11-22T02:55:04;12.20;99.90
30694;DHT22;17446;48.022;-1.740;2023-11-22T02:57:32;12.20;99.90
30694;DHT22;17446;48.022;-1.740;2023-11-22T02:59:58;12.20;99.90
30694;DHT22;17446;48.022;-1.740;2023-11-22T03:02:24;12.20;99.90
30694;DHT22;17446;48.022;-1.740;2023-11-22T03:04:50;12.20;99.90
30694;DHT22;17446;48.022;-1.740;2023-11-22T03:07:16;12.20;99.90
30694;DHT22;17446;48.022;-1.740;2023-11-22T03:09:42;12.20;99.90
30694;DHT22;17446;48.022;-1.740;2023-11-22T03:12:10;12.20;99.90
30694;DHT22;17446;48.022;-1.740;2023-11-22T03:14:38;12.20;99.90
30694;DHT22;17446;48.022;-1.740;2023-11-22T03:17:05;12.20;99.90
30694;DHT22;17446;48.022;-1.740;2023-11-22T03:19:30;12.20;99.90
30694;DHT22;17446;48.022;-1.740;2023-11-22T03:21:56;12.20;99.90
30694;DHT22;17446;48.022;-1.740;2023-11-22T03:24:22;12.20;99.90
30694;DHT22;17446;48.022;-1.740;2023-11-22T03:26:47;12.20;99.90
30694;DHT22;17446;48.022;-1.740;2023-11-22T03:29:17;12.20;99.90
30694;DHT22;17446;48.022;-1.740;2023-11-22T03:31:43;12.10;99.90
30694;DHT22;17446;48.022;-1.740;2023-11-22T03:34:09;12.20;99.90
30694;DHT22;17446;48.022;-1.740;2023-11-22T03:36:35;12.20;99.90
30694;DHT22;17446;48.022;-1.740;2023-11-22T03:39:00;12.20;99.90
30694;DHT22;17446;48.022;-1.740;2023-11-22T03:41:26;12.10;99.90
30694;DHT22;17446;48.022;-1.740;2023-11-22T03:43:51;12.10;99.90
30694;DHT22;17446;48.022;-1.740;2023-11-22T03:46:17;12.20;99.90
30694;DHT22;17446;48.022;-1.740;2023-11-22T03:48:43;12.20;99.90
30694;DHT22;17446;48.022;-1.740;2023-11-22T03:51:08;12.10;99.90
30694;DHT22;17446;48.022;-1.740;2023-11-22T03:53:34;12.10;99.90
30694;DHT22;17446;48.022;-1.740;2023-11-22T03:55:59;12.10;99.90
30694;DHT22;17446;48.022;-1.740;2023-11-22T03:58:25;12.10;99.90
30694;DHT22;17446;48.022;-1.740;2023-11-22T04:00:51;12.10;99.90
30694;DHT22;17446;48.022;-1.740;2023-11-22T04:03:18;12.10;99.90
30694;DHT22;17446;48.022;-1.740;2023-11-22T04:05:44;12.10;99.90
30694;DHT22;17446;48.022;-1.740;2023-11-22T04:08:10;12.10;99.90
30694;DHT22;17446;48.022;-1.740;2023-11-22T04:10:35;12.10;99.90
30694;DHT22;17446;48.022;-1.740;2023-11-22T04:13:01;12.10;99.90
30694;DHT22;17446;48.022;-1.740;2023-11-22T04:15:26;12.10;99.90
30694;DHT22;17446;48.022;-1.740;2023-11-22T04:17:52;12.10;99.90
30694;DHT22;17446;48.022;-1.740;2023-11-22T04:20:20;12.10;99.90
30694;DHT22;17446;48.022;-1.740;2023-11-22T04:22:45;12.10;99.90
30694;DHT22;17446;48.022;-1.740;2023-11-22T04:25:11;12.10;99.90
30694;DHT22;17446;48.022;-1.740;2023-11-22T04:27:40;12.10;99.90
30694;DHT22;17446;48.022;-1.740;2023-11-22T04:33:11;12.10;99.90
30694;DHT22;17446;48.022;-1.740;2023-11-22T04:35:36;12.10;99.90
30694;DHT22;17446;48.022;-1.740;2023-11-22T04:38:04;12.10;99.90
30694;DHT22;17446;48.022;-1.740;2023-11-22T04:40:30;12.10;99.90
30694;DHT22;17446;48.022;-1.740;2023-11-22T04:42:55;12.10;99.90
30694;DHT22;17446;48.022;-1.740;2023-11-22T04:45:21;12.10;99.90
30694;DHT22;17446;48.022;-1.740;2023-11-22T04:47:47;12.10;99.90
30694;DHT22;17446;48.022;-1.740;2023-11-22T04:50:12;12.10;99.90
30694;DHT22;17446;48.022;-1.740;2023-11-22T04:52:38;12.10;99.90
30694;DHT22;17446;48.022;-1.740;2023-11-22T04:55:05;12.10;99.90
30694;DHT22;17446;48.022;-1.740;2023-11-22T04:57:30;12.10;99.90
30694;DHT22;17446;48.022;-1.740;2023-11-22T04:59:56;12.10;99.90
30694;DHT22;17446;48.022;-1.740;2023-11-22T05:02:22;12.10;99.90
30694;DHT22;17446;48.022;-1.740;2023-11-22T05:04:48;12.10;99.90
30694;DHT22;17446;48.022;-1.740;2023-11-22T05:07:15;12.10;99.90
30694;DHT22;17446;48.022;-1.740;2023-11-22T05:09:41;12.10;99.90
30694;DHT22;17446;48.022;-1.740;2023-11-22T05:12:09;12.00;99.90
30694;DHT22;17446;48.022;-1.740;2023-11-22T05:14:35;12.00;99.90
30694;DHT22;17446;48.022;-1.740;2023-11-22T05:17:01;12.10;99.90
30694;DHT22;17446;48.022;-1.740;2023-11-22T05:19:27;12.00;99.90
30694;DHT22;17446;48.022;-1.740;2023-11-22T05:21:52;12.00;99.90
30694;DHT22;17446;48.022;-1.740;2023-11-22T05:24:18;12.00;99.90
30694;DHT22;17446;48.022;-1.740;2023-11-22T05:26:43;12.10;99.90
30694;DHT22;17446;48.022;-1.740;2023-11-22T05:29:09;12.10;99.90
30694;DHT22;17446;48.022;-1.740;2023-11-22T05:31:35;12.00;99.90
30694;DHT22;17446;48.022;-1.740;2023-11-22T05:34:02;12.00;99.90
30694;DHT22;17446;48.022;-1.740;2023-11-22T05:36:28;12.00;99.90
30694;DHT22;17446;48.022;-1.740;2023-11-22T05:38:55;12.00;99.90
30694;DHT22;17446;48.022;-1.740;2023-11-22T05:41:24;12.00;99.90
30694;DHT22;17446;48.022;-1.740;2023-11-22T05:43:51;12.00;99.90
30694;DHT22;17446;48.022;-1.740;2023-11-22T05:46:18;12.00;99.90
30694;DHT22;17446;48.022;-1.740;2023-11-22T05:48:47;11.90;99.90
30694;DHT22;17446;48.022;-1.740;2023-11-22T05:51:14;12.00;99.90
30694;DHT22;17446;48.022;-1.740;2023-11-22T05:53:40;11.90;99.90
30694;DHT22;17446;48.022;-1.740;2023-11-22T05:56:06;11.90;99.90
30694;DHT22;17446;48.022;-1.740;2023-11-22T05:58:33;11.90;99.90
30694;DHT22;17446;48.022;-1.740;2023-11-22T06:00:58;11.90;99.90
30694;DHT22;17446;48.022;-1.740;2023-11-22T06:03:24;12.00;99.90
30694;DHT22;17446;48.022;-1.740;2023-11-22T06:05:49;11.90;99.90
30694;DHT22;17446;48.022;-1.740;2023-11-22T06:08:16;11.90;99.90
30694;DHT22;17446;48.022;-1.740;2023-11-22T06:10:42;11.90;99.90
30694;DHT22;17446;48.022;-1.740;2023-11-22T06:13:07;11.90;99.90
30694;DHT22;17446;48.022;-1.740;2023-11-22T06:15:34;11.90;99.90
30694;DHT22;17446;48.022;-1.740;2023-11-22T06:17:59;11.90;99.90
30694;DHT22;17446;48.022;-1.740;2023-11-22T06:20:25;11.90;99.90
30694;DHT22;17446;48.022;-1.740;2023-11-22T06:22:52;11.90;99.90
30694;DHT22;17446;48.022;-1.740;2023-11-22T06:25:18;11.90;99.90
30694;DHT22;17446;48.022;-1.740;2023-11-22T06:27:43;11.90;99.90
30694;DHT22;17446;48.022;-1.740;2023-11-22T06:30:09;11.90;99.90
30694;DHT22;17446;48.022;-1.740;2023-11-22T06:32:35;11.90;99.90
30694;DHT22;17446;48.022;-1.740;2023-11-22T06:35:01;11.90;99.90
30694;DHT22;17446;48.022;-1.740;2023-11-22T06:37:26;11.80;99.90
30694;DHT22;17446;48.022;-1.740;2023-11-22T06:39:52;11.80;99.90
30694;DHT22;17446;48.022;-1.740;2023-11-22T06:42:18;11.80;99.90
30694;DHT22;17446;48.022;-1.740;2023-11-22T06:44:47;11.80;99.90
30694;DHT22;17446;48.022;-1.740;2023-11-22T06:47:13;11.80;99.90
30694;DHT22;17446;48.022;-1.740;2023-11-22T06:49:39;11.80;99.90
30694;DHT22;17446;48.022;-1.740;2023-11-22T06:52:05;11.80;99.90
30694;DHT22;17446;48.022;-1.740;2023-11-22T06:54:30;11.80;99.90
30694;DHT22;17446;48.022;-1.740;2023-11-22T06:56:56;11.80;99.90
30694;DHT22;17446;48.022;-1.740;2023-11-22T06:59:22;11.80;99.90
30694;DHT22;17446;48.022;-1.740;2023-11-22T07:01:48;11.70;99.90
30694;DHT22;17446;48.022;-1.740;2023-11-22T07:04:14;11.70;99.90
30694;DHT22;17446;48.022;-1.740;2023-11-22T07:06:39;11.70;99.90
30694;DHT22;17446;48.022;-1.740;2023-11-22T07:09:05;11.60;99.90
30694;DHT22;17446;48.022;-1.740;2023-11-22T07:11:35;11.60;99.90
30694;DHT22;17446;48.022;-1.740;2023-11-22T07:14:02;11.60;99.90
30694;DHT22;17446;48.022;-1.740;2023-11-22T07:16:29;11.60;99.90
30694;DHT22;17446;48.022;-1.740;2023-11-22T07:18:55;11.60;99.90
30694;DHT22;17446;48.022;-1.740;2023-11-22T07:21:20;11.60;99.90
30694;DHT22;17446;48.022;-1.740;2023-11-22T07:23:47;11.50;99.90
30694;DHT22;17446;48.022;-1.740;2023-11-22T07:26:12;11.50;99.90
30694;DHT22;17446;48.022;-1.740;2023-11-22T07:28:41;11.50;99.90
30694;DHT22;17446;48.022;-1.740;2023-11-22T07:31:08;11.50;99.90
30694;DHT22;17446;48.022;-1.740;2023-11-22T07:33:35;11.50;99.90
30694;DHT22;17446;48.022;-1.740;2023-11-22T07:36:00;11.50;99.90
30694;DHT22;17446;48.022;-1.740;2023-11-22T07:38:26;11.40;99.90
30694;DHT22;17446;48.022;-1.740;2023-11-22T07:40:52;11.40;99.90
30694;DHT22;17446;48.022;-1.740;2023-11-22T07:43:18;11.40;99.90
30694;DHT22;17446;48.022;-1.740;2023-11-22T07:45:44;11.40;99.90
30694;DHT22;17446;48.022;-1.740;2023-11-22T07:48:13;11.40;99.90
30694;DHT22;17446;48.022;-1.740;2023-11-22T07:50:39;11.40;99.90
30694;DHT22;17446;48.022;-1.740;2023-11-22T07:53:04;11.40;99.90
30694;DHT22;17446;48.022;-1.740;2023-11-22T07:55:31;11.40;99.90
30694;DHT22;17446;48.022;-1.740;2023-11-22T07:57:56;11.40;99.90
30694;DHT22;17446;48.022;-1.740;2023-11-22T08:00:22;11.40;99.90
30694;DHT22;17446;48.022;-1.740;2023-11-22T08:02:48;11.30;99.90
30694;DHT22;17446;48.022;-1.740;2023-11-22T08:05:16;11.30;99.90
30694;DHT22;17446;48.022;-1.740;2023-11-22T08:07:43;11.30;99.90
30694;DHT22;17446;48.022;-1.740;2023-11-22T08:10:11;11.30;99.90
30694;DHT22;17446;48.022;-1.740;2023-11-22T08:12:47;11.30;99.90
30694;DHT22;17446;48.022;-1.740;2023-11-22T08:15:16;11.30;99.90
30694;DHT22;17446;48.022;-1.740;2023-11-22T08:17:43;11.30;99.90
30694;DHT22;17446;48.022;-1.740;2023-11-22T08:20:09;11.40;99.90
30694;DHT22;17446;48.022;-1.740;2023-11-22T08:22:40;11.40;99.90
30694;DHT22;17446;48.022;-1.740;2023-11-22T08:25:07;11.40;99.90
30694;DHT22;17446;48.022;-1.740;2023-11-22T08:27:34;11.40;99.90
30694;DHT22;17446;48.022;-1.740;2023-11-22T08:30:00;11.40;99.90
30694;DHT22;17446;48.022;-1.740;2023-11-22T08:32:31;11.50;99.90
30694;DHT22;17446;48.022;-1.740;2023-11-22T08:34:57;11.40;99.90
30694;DHT22;17446;48.022;-1.740;2023-11-22T08:37:22;11.40;99.90
30694;DHT22;17446;48.022;-1.740;2023-11-22T08:39:48;11.40;99.90
30694;DHT22;17446;48.022;-1.740;2023-11-22T08:42:14;11.50;99.90
30694;DHT22;17446;48.022;-1.740;2023-11-22T08:44:41;11.50;99.90
30694;DHT22;17446;48.022;-1.740;2023-11-22T08:47:06;11.60;99.90
30694;DHT22;17446;48.022;-1.740;2023-11-22T08:49:34;11.60;99.90
30694;DHT22;17446;48.022;-1.740;2023-11-22T08:51:59;11.60;99.90
30694;DHT22;17446;48.022;-1.740;2023-11-22T08:54:26;11.60;99.90
30694;DHT22;17446;48.022;-1.740;2023-11-22T08:56:55;11.60;99.90
30694;DHT22;17446;48.022;-1.740;2023-11-22T08:59:24;11.70;99.90
30694;DHT22;17446;48.022;-1.740;2023-11-22T09:01:49;11.70;99.90
30694;DHT22;17446;48.022;-1.740;2023-11-22T09:04:15;11.70;99.90
30694;DHT22;17446;48.022;-1.740;2023-11-22T09:06:41;11.70;99.90
30694;DHT22;17446;48.022;-1.740;2023-11-22T09:09:07;11.70;99.90
30694;DHT22;17446;48.022;-1.740;2023-11-22T09:11:33;11.70;99.90
30694;DHT22;17446;48.022;-1.740;2023-11-22T09:14:00;11.70;99.90
30694;DHT22;17446;48.022;-1.740;2023-11-22T09:16:37;11.80;99.90
30694;DHT22;17446;48.022;-1.740;2023-11-22T09:19:04;11.90;99.90
30694;DHT22;17446;48.022;-1.740;2023-11-22T09:21:32;11.90;99.90
30694;DHT22;17446;48.022;-1.740;2023-11-22T09:23:58;12.00;99.90
30694;DHT22;17446;48.022;-1.740;2023-11-22T09:26:24;12.00;99.90
30694;DHT22;17446;48.022;-1.740;2023-11-22T09:28:50;12.10;99.90
30694;DHT22;17446;48.022;-1.740;2023-11-22T09:31:15;12.20;99.90
30694;DHT22;17446;48.022;-1.740;2023-11-22T09:33:45;12.30;99.90
30694;DHT22;17446;48.022;-1.740;2023-11-22T09:36:12;12.30;99.90
30694;DHT22;17446;48.022;-1.740;2023-11-22T09:38:38;12.40;99.90
30694;DHT22;17446;48.022;-1.740;2023-11-22T09:41:04;12.50;99.90
30694;DHT22;17446;48.022;-1.740;2023-11-22T09:43:30;12.50;99.90
30694;DHT22;17446;48.022;-1.740;2023-11-22T09:45:56;12.50;99.90
30694;DHT22;17446;48.022;-1.740;2023-11-22T09:48:23;12.60;99.90
30694;DHT22;17446;48.022;-1.740;2023-11-22T09:53:56;12.50;99.90
30694;DHT22;17446;48.022;-1.740;2023-11-22T09:56:24;12.50;99.90
30694;DHT22;17446;48.022;-1.740;2023-11-22T09:58:53;12.60;99.90
30694;DHT22;17446;48.022;-1.740;2023-11-22T10:01:25;12.60;99.90
30694;DHT22;17446;48.022;-1.740;2023-11-22T10:03:54;12.70;99.90
30694;DHT22;17446;48.022;-1.740;2023-11-22T10:06:20;12.70;99.90
30694;DHT22;17446;48.022;-1.740;2023-11-22T10:08:46;12.80;99.90
30694;DHT22;17446;48.022;-1.740;2023-11-22T10:11:15;12.80;99.90
30694;DHT22;17446;48.022;-1.740;2023-11-22T10:13:43;12.80;99.90
30694;DHT22;17446;48.022;-1.740;2023-11-22T10:16:13;12.70;99.90
30694;DHT22;17446;48.022;-1.740;2023-11-22T10:18:46;12.70;99.90
30694;DHT22;17446;48.022;-1.740;2023-11-22T10:21:19;12.70;99.90
30694;DHT22;17446;48.022;-1.740;2023-11-22T10:23:46;12.70;99.90
30694;DHT22;17446;48.022;-1.740;2023-11-22T10:26:13;12.80;99.90
30694;DHT22;17446;48.022;-1.740;2023-11-22T10:28:41;12.90;99.90
30694;DHT22;17446;48.022;-1.740;2023-11-22T10:31:08;13.00;99.90
30694;DHT22;17446;48.022;-1.740;2023-11-22T10:33:47;13.10;99.90
30694;DHT22;17446;48.022;-1.740;2023-11-22T10:36:14;13.20;99.90
30694;DHT22;17446;48.022;-1.740;2023-11-22T10:38:41;13.20;99.90
30694;DHT22;17446;48.022;-1.740;2023-11-22T10:41:08;13.20;99.90
30694;DHT22;17446;48.022;-1.740;2023-11-22T10:43:34;13.20;99.90
30694;DHT22;17446;48.022;-1.740;2023-11-22T10:46:03;13.20;99.90
30694;DHT22;17446;48.022;-1.740;2023-11-22T10:48:35;13.30;99.90
30694;DHT22;17446;48.022;-1.740;2023-11-22T10:51:02;13.20;99.90
30694;DHT22;17446;48.022;-1.740;2023-11-22T10:53:36;13.20;99.90
30694;DHT22;17446;48.022;-1.740;2023-11-22T10:56:15;13.20;99.90
30694;DHT22;17446;48.022;-1.740;2023-11-22T10:58:46;13.10;99.90
30694;DHT22;17446;48.022;-1.740;2023-11-22T11:01:12;13.20;99.90
30694;DHT22;17446;48.022;-1.740;2023-11-22T11:03:40;13.20;99.90
30694;DHT22;17446;48.022;-1.740;2023-11-22T11:06:10;13.30;99.90
30694;DHT22;17446;48.022;-1.740;2023-11-22T11:08:39;13.40;99.90
30694;DHT22;17446;48.022;-1.740;2023-11-22T11:11:05;13.60;99.90
30694;DHT22;17446;48.022;-1.740;2023-11-22T11:13:31;13.70;99.90
30694;DHT22;17446;48.022;-1.740;2023-11-22T11:15:58;13.70;99.90
30694;DHT22;17446;48.022;-1.740;2023-11-22T11:18:25;13.70;99.90
30694;DHT22;17446;48.022;-1.740;2023-11-22T11:20:57;13.70;99.90
30694;DHT22;17446;48.022;-1.740;2023-11-22T11:23:25;13.60;99.90
30694;DHT22;17446;48.022;-1.740;2023-11-22T11:25:56;13.60;99.90
30694;DHT22;17446;48.022;-1.740;2023-11-22T11:28:22;13.50;99.90
30694;DHT22;17446;48.022;-1.740;2023-11-22T11:30:51;13.50;99.90
30694;DHT22;17446;48.022;-1.740;2023-11-22T11:33:32;13.40;99.90
30694;DHT22;17446;48.022;-1.740;2023-11-22T11:35:58;13.30;99.90
30694;DHT22;17446;48.022;-1.740;2023-11-22T11:38:34;13.40;99.90
30694;DHT22;17446;48.022;-1.740;2023-11-22T11:41:24;13.50;99.90
30694;DHT22;17446;48.022;-1.740;2023-11-22T11:43:50;13.50;99.90
30694;DHT22;17446;48.022;-1.740;2023-11-22T11:46:16;13.50;99.90
30694;DHT22;17446;48.022;-1.740;2023-11-22T11:48:49;13.50;99.90
30694;DHT22;17446;48.022;-1.740;2023-11-22T11:51:19;13.40;99.90
30694;DHT22;17446;48.022;-1.740;2023-11-22T11:53:45;13.50;99.90
30694;DHT22;17446;48.022;-1.740;2023-11-22T11:56:12;13.50;99.90
30694;DHT22;17446;48.022;-1.740;2023-11-22T11:58:38;13.60;99.90
30694;DHT22;17446;48.022;-1.740;2023-11-22T12:01:05;13.50;99.90
30694;DHT22;17446;48.022;-1.740;2023-11-22T12:03:32;13.50;99.90
30694;DHT22;17446;48.022;-1.740;2023-11-22T12:05:58;13.60;99.90
30694;DHT22;17446;48.022;-1.740;2023-11-22T12:08:23;13.60;99.90
30694;DHT22;17446;48.022;-1.740;2023-11-22T12:10:49;13.70;99.90
30694;DHT22;17446;48.022;-1.740;2023-11-22T12:13:25;13.70;99.90
30694;DHT22;17446;48.022;-1.740;2023-11-22T12:15:52;13.70;99.90
30694;DHT22;17446;48.022;-1.740;2023-11-22T12:18:19;13.70;99.90
30694;DHT22;17446;48.022;-1.740;2023-11-22T12:20:58;13.70;99.90
30694;DHT22;17446;48.022;-1.740;2023-11-22T12:23:27;13.70;99.90
30694;DHT22;17446;48.022;-1.740;2023-11-22T12:25:57;13.80;99.90
30694;DHT22;17446;48.022;-1.740;2023-11-22T12:28:30;13.90;99.90
30694;DHT22;17446;48.022;-1.740;2023-11-22T12:31:07;13.80;99.90
30694;DHT22;17446;48.022;-1.740;2023-11-22T12:33:35;13.70;99.90
30694;DHT22;17446;48.022;-1.740;2023-11-22T12:36:01;13.70;99.90
30694;DHT22;17446;48.022;-1.740;2023-11-22T12:38:27;13.70;99.90
30694;DHT22;17446;48.022;-1.740;2023-11-22T12:40:57;13.70;99.90
30694;DHT22;17446;48.022;-1.740;2023-11-22T12:43:23;13.70;99.90
30694;DHT22;17446;48.022;-1.740;2023-11-22T12:46:02;13.70;99.90
30694;DHT22;17446;48.022;-1.740;2023-11-22T12:48:28;13.80;99.90
30694;DHT22;17446;48.022;-1.740;2023-11-22T12:50:58;13.80;99.90
30694;DHT22;17446;48.022;-1.740;2023-11-22T12:53:24;13.80;99.90
30694;DHT22;17446;48.022;-1.740;2023-11-22T12:55:54;13.90;99.90
30694;DHT22;17446;48.022;-1.740;2023-11-22T12:58:25;13.90;99.90
30694;DHT22;17446;48.022;-1.740;2023-11-22T13:00:53;14.00;99.90
30694;DHT22;17446;48.022;-1.740;2023-11-22T13:03:24;14.10;99.90
30694;DHT22;17446;48.022;-1.740;2023-11-22T13:05:50;14.10;99.90
30694;DHT22;17446;48.022;-1.740;2023-11-22T13:08:18;14.20;99.90
30694;DHT22;17446;48.022;-1.740;2023-11-22T13:10:45;14.20;99.90
30694;DHT22;17446;48.022;-1.740;2023-11-22T13:13:13;14.30;99.90
30694;DHT22;17446;48.022;-1.740;2023-11-22T13:15:39;14.30;99.90
30694;DHT22;17446;48.022;-1.740;2023-11-22T13:18:08;14.40;99.90
30694;DHT22;17446;48.022;-1.740;2023-11-22T13:20:34;14.40;99.90
30694;DHT22;17446;48.022;-1.740;2023-11-22T13:23:00;14.50;99.90
30694;DHT22;17446;48.022;-1.740;2023-11-22T13:25:26;14.60;99.90
30694;DHT22;17446;48.022;-1.740;2023-11-22T13:27:52;14.60;99.90
30694;DHT22;17446;48.022;-1.740;2023-11-22T13:30:19;14.60;99.90
30694;DHT22;17446;48.022;-1.740;2023-11-22T13:32:46;14.50;99.90
30694;DHT22;17446;48.022;-1.740;2023-11-22T13:35:12;14.40;99.90
30694;DHT22;17446;48.022;-1.740;2023-11-22T13:37:45;14.40;99.90
30694;DHT22;17446;48.022;-1.740;2023-11-22T13:40:17;14.30;99.90
30694;DHT22;17446;48.022;-1.740;2023-11-22T13:42:50;14.30;99.90
30694;DHT22;17446;48.022;-1.740;2023-11-22T13:45:17;14.20;99.90
30694;DHT22;17446;48.022;-1.740;2023-11-22T13:47:44;14.20;99.90
30694;DHT22;17446;48.022;-1.740;2023-11-22T13:50:13;14.20;99.90
30694;DHT22;17446;48.022;-1.740;2023-11-22T13:52:40;14.10;99.90
30694;DHT22;17446;48.022;-1.740;2023-11-22T13:55:06;14.10;99.90
30694;DHT22;17446;48.022;-1.740;2023-11-22T13:57:36;14.10;99.90
30694;DHT22;17446;48.022;-1.740;2023-11-22T14:00:03;14.10;99.90
30694;DHT22;17446;48.022;-1.740;2023-11-22T14:02:35;14.00;99.90
30694;DHT22;17446;48.022;-1.740;2023-11-22T14:05:00;14.00;99.90
30694;DHT22;17446;48.022;-1.740;2023-11-22T14:07:26;14.00;99.90
30694;DHT22;17446;48.022;-1.740;2023-11-22T14:09:52;13.90;99.90
30694;DHT22;17446;48.022;-1.740;2023-11-22T14:12:19;13.90;99.90
30694;DHT22;17446;48.022;-1.740;2023-11-22T14:14:45;13.90;99.90
30694;DHT22;17446;48.022;-1.740;2023-11-22T14:17:10;13.90;99.90
30694;DHT22;17446;48.022;-1.740;2023-11-22T14:19:36;13.90;99.90
30694;DHT22;17446;48.022;-1.740;2023-11-22T14:22:01;13.90;99.90
30694;DHT22;17446;48.022;-1.740;2023-11-22T14:24:27;13.90;99.90
30694;DHT22;17446;48.022;-1.740;2023-11-22T14:26:55;13.90;99.90
30694;DHT22;17446;48.022;-1.740;2023-11-22T14:29:23;13.90;99.90
30694;DHT22;17446;48.022;-1.740;2023-11-22T14:31:48;13.80;99.90
30694;DHT22;17446;48.022;-1.740;2023-11-22T14:34:14;13.90;99.90
30694;DHT22;17446;48.022;-1.740;2023-11-22T14:36:40;13.90;99.90
30694;DHT22;17446;48.022;-1.740;2023-11-22T14:39:06;13.80;99.90
30694;DHT22;17446;48.022;-1.740;2023-11-22T14:41:35;13.80;99.90
30694;DHT22;17446;48.022;-1.740;2023-11-22T14:44:01;13.80;99.90
30694;DHT22;17446;48.022;-1.740;2023-11-22T14:46:26;13.80;99.90
30694;DHT22;17446;48.022;-1.740;2023-11-22T14:48:52;13.80;99.90
30694;DHT22;17446;48.022;-1.740;2023-11-22T14:51:18;13.80;99.90
30694;DHT22;17446;48.022;-1.740;2023-11-22T14:53:44;13.70;99.90
30694;DHT22;17446;48.022;-1.740;2023-11-22T14:56:10;13.70;99.90
30694;DHT22;17446;48.022;-1.740;2023-11-22T14:58:36;13.70;99.90
30694;DHT22;17446;48.022;-1.740;2023-11-22T15:01:01;13.70;99.90
30694;DHT22;17446;48.022;-1.740;2023-11-22T15:03:30;13.70;99.90
30694;DHT22;17446;48.022;-1.740;2023-11-22T15:05:56;13.70;99.90
30694;DHT22;17446;48.022;-1.740;2023-11-22T15:08:23;13.70;99.90
30694;DHT22;17446;48.022;-1.740;2023-11-22T15:10:54;13.60;99.90
30694;DHT22;17446;48.022;-1.740;2023-11-22T15:13:20;13.60;99.90
30694;DHT22;17446;48.022;-1.740;2023-11-22T15:15:46;13.60;99.90
30694;DHT22;17446;48.022;-1.740;2023-11-22T15:18:12;13.60;99.90
30694;DHT22;17446;48.022;-1.740;2023-11-22T15:20:37;13.60;99.90